createdAt,value
2022-10-05T00:00:55.633Z,19.9
2022-10-05T00:03:12.272Z,19.7
2022-10-05T00:05:29.254Z,19.8
2022-10-05T00:07:45.875Z,19.8
2022-10-05T00:10:01.036Z,19.8
2022-10-05T00:12:17.892Z,20.1
2022-10-05T00:14:33.073Z,19.7
2022-10-05T00:16:50.250Z,19.9
2022-10-05T00:19:06.841Z,19.7
2022-10-05T00:21:23.674Z,19.7
2022-10-05T00:23:40.635Z,19.5
2022-10-05T00:25:57.517Z,19.9
2022-10-05T00:28:14.555Z,19.9
2022-10-05T00:30:31.455Z,19.6
2022-10-05T00:32:48.276Z,19.8
2022-10-05T00:35:05.055Z,19.8
2022-10-05T00:37:21.792Z,19.9
2022-10-05T00:39:38.793Z,19.8
2022-10-05T00:41:55.689Z,19.7
2022-10-05T00:44:10.891Z,19.6
2022-10-05T00:46:26.233Z,20
2022-10-05T00:48:43.175Z,20
2022-10-05T00:51:00.025Z,19.8
2022-10-05T00:53:17.108Z,19.8
2022-10-05T00:55:33.929Z,19.6
2022-10-05T00:57:49.553Z,19.8
2022-10-05T01:00:04.632Z,19.8
2022-10-05T01:02:21.514Z,19.9
2022-10-05T01:04:38.507Z,19.7
2022-10-05T01:06:55.449Z,19.5
2022-10-05T01:09:10.931Z,19.7
2022-10-05T01:11:27.652Z,20
2022-10-05T01:13:44.728Z,19.6
2022-10-05T01:16:01.565Z,19.6
2022-10-05T01:18:18.725Z,19.6
2022-10-05T01:20:35.364Z,19.7
2022-10-05T01:22:50.549Z,19.8
2022-10-05T01:25:07.446Z,19.9
2022-10-05T01:27:24.550Z,19.4
2022-10-05T01:29:41.442Z,19.8
2022-10-05T01:31:56.744Z,19.4
2022-10-05T01:34:13.595Z,20.1
2022-10-05T01:36:30.433Z,19.5
2022-10-05T01:38:47.531Z,19.6
2022-10-05T01:41:04.416Z,19.8
2022-10-05T01:43:22.057Z,19.7
2022-10-05T01:45:38.299Z,19.6
2022-10-05T01:47:55.031Z,19.9
2022-10-05T01:50:10.525Z,19.6
2022-10-05T01:52:27.247Z,19.9
2022-10-05T01:54:42.854Z,19.7
2022-10-05T01:56:58.189Z,19.9
2022-10-05T01:59:15.883Z,19.9
2022-10-05T02:01:32.254Z,19.5
2022-10-05T02:03:49.305Z,19.5
2022-10-05T02:06:30.248Z,19.6
2022-10-05T02:08:45.491Z,19.6
2022-10-05T02:11:02.212Z,20.1
2022-10-05T02:13:19.072Z,19.4
2022-10-05T02:15:34.483Z,19.4
2022-10-05T02:17:51.725Z,20
2022-10-05T02:20:08.065Z,19.9
2022-10-05T02:22:23.634Z,19.3
2022-10-05T02:24:40.194Z,19.9
2022-10-05T02:26:57.150Z,19.4
2022-10-05T02:29:13.961Z,19.5
2022-10-05T02:31:30.854Z,19.4
2022-10-05T02:33:47.594Z,19.3
2022-10-05T02:36:04.404Z,19.4
2022-10-05T02:38:19.929Z,19.4
2022-10-05T02:40:36.376Z,19.9
2022-10-05T02:42:53.280Z,19.4
2022-10-05T02:45:10.169Z,19.3
2022-10-05T02:47:27.034Z,19.4
2022-10-05T02:49:43.831Z,19.4
2022-10-05T02:52:00.728Z,19.3
2022-10-05T02:54:17.571Z,19.4
2022-10-05T02:56:34.378Z,19.4
2022-10-05T02:58:49.673Z,19.3
2022-10-05T03:01:06.483Z,19.9
2022-10-05T03:03:23.310Z,19.4
2022-10-05T03:05:40.488Z,19.3
2022-10-05T03:07:57.094Z,19.1
2022-10-05T03:10:13.891Z,19.1
2022-10-05T03:12:29.124Z,19.1
2022-10-05T03:14:45.830Z,19.7
2022-10-05T03:17:02.655Z,19.4
2022-10-05T03:19:19.523Z,19.3
2022-10-05T03:21:36.380Z,19.4
2022-10-05T03:23:53.642Z,19.4
2022-10-05T03:26:10.105Z,19.5
2022-10-05T03:28:26.986Z,19.2
2022-10-05T03:30:42.212Z,19.1
2022-10-05T03:32:59.061Z,19.6
2022-10-05T03:35:14.493Z,19.4
2022-10-05T03:37:31.212Z,19.6
2022-10-05T03:39:48.155Z,19.3
2022-10-05T03:42:05.062Z,19.4
2022-10-05T03:44:21.972Z,19.1
2022-10-05T03:46:38.818Z,19.1
2022-10-05T03:48:55.523Z,19.3
2022-10-05T03:51:12.413Z,19
2022-10-05T03:53:29.331Z,19.1
2022-10-05T03:55:46.229Z,19.1
2022-10-05T03:58:02.990Z,19.2
2022-10-05T04:00:19.822Z,19.1
2022-10-05T04:02:36.725Z,19.1
2022-10-05T04:04:53.513Z,19.1
2022-10-05T04:07:08.907Z,19.2
2022-10-05T04:09:24.559Z,19.4
2022-10-05T04:11:41.223Z,19.8
2022-10-05T04:13:58.194Z,18.9
2022-10-05T04:16:13.696Z,19.1
2022-10-05T04:18:30.532Z,19.6
2022-10-05T04:20:47.362Z,19.3
2022-10-05T04:23:04.395Z,19
2022-10-05T04:25:21.216Z,19.1
2022-10-05T04:27:38.003Z,19.1
2022-10-05T04:29:55.104Z,19.1
2022-10-05T04:32:11.742Z,18.9
2022-10-05T04:34:28.632Z,19.1
2022-10-05T04:36:45.845Z,18.9
2022-10-05T04:39:00.896Z,18.9
2022-10-05T04:41:17.563Z,19.4
2022-10-05T04:43:34.462Z,19
2022-10-05T04:45:49.971Z,19.2
2022-10-05T04:48:06.688Z,19.4
2022-10-05T04:50:23.619Z,18.9
2022-10-05T04:52:39.154Z,18.9
2022-10-05T04:54:56.147Z,19.4
2022-10-05T04:57:12.915Z,18.9
2022-10-05T04:59:29.843Z,18.8
2022-10-05T05:01:46.810Z,19.1
2022-10-05T05:04:03.712Z,19
2022-10-05T05:06:33.327Z,18.9
2022-10-05T05:08:48.984Z,19.3
2022-10-05T05:11:05.893Z,19.3
2022-10-05T05:13:22.902Z,19.1
2022-10-05T05:15:39.920Z,18.8
2022-10-05T05:17:56.809Z,18.9
2022-10-05T05:20:13.920Z,19
2022-10-05T05:22:29.152Z,19.2
2022-10-05T05:24:46.119Z,19.3
2022-10-05T05:27:02.921Z,19.1
2022-10-05T05:29:19.890Z,18.8
2022-10-05T05:31:36.999Z,19
2022-10-05T05:33:53.876Z,19
2022-10-05T05:36:10.927Z,19
2022-10-05T05:38:26.366Z,19
2022-10-05T05:40:43.070Z,19.6
2022-10-05T05:43:00.241Z,19.2
2022-10-05T05:45:17.124Z,19.2
2022-10-05T05:47:46.892Z,19.2
2022-10-05T05:50:06.904Z,19.3
2022-10-05T05:52:17.651Z,19.7
2022-10-05T05:54:33.331Z,19.9
2022-10-05T05:56:50.196Z,19.8
2022-10-05T05:59:07.137Z,19.4
2022-10-05T06:01:33.051Z,19.5
2022-10-05T06:03:44.256Z,19.8
2022-10-05T06:06:01.142Z,19.8
2022-10-05T06:08:18.151Z,19.6
2022-10-05T06:10:35.022Z,20
2022-10-05T06:12:52.078Z,19.8
2022-10-05T06:15:08.919Z,20.1
2022-10-05T06:17:25.889Z,20.2
2022-10-05T06:19:41.165Z,20.1
2022-10-05T06:21:57.987Z,20.7
2022-10-05T06:24:14.837Z,20.5
2022-10-05T06:26:31.603Z,20.3
2022-10-05T06:28:47.069Z,20.4
2022-10-05T06:31:03.880Z,20.8
2022-10-05T06:33:20.799Z,20.7
2022-10-05T06:35:37.463Z,20.6
2022-10-05T06:37:54.537Z,20.8
2022-10-05T06:40:11.147Z,20.9
2022-10-05T06:42:28.138Z,20.9
2022-10-05T06:44:44.771Z,20.8
2022-10-05T06:47:01.620Z,21
2022-10-05T06:49:16.699Z,21.2
2022-10-05T06:51:31.647Z,21.5
2022-10-05T06:53:48.568Z,21.6
2022-10-05T06:56:05.298Z,21.4
2022-10-05T06:58:20.533Z,21.4
2022-10-05T07:00:37.014Z,21.8
2022-10-05T07:02:53.766Z,21.4
2022-10-05T07:05:10.204Z,21.6
2022-10-05T07:07:25.556Z,21.4
2022-10-05T07:09:41.929Z,22.1
2022-10-05T07:12:02.359Z,21.6
2022-10-05T07:14:15.099Z,21.8
2022-10-05T07:16:31.886Z,21.9
2022-10-05T07:18:48.180Z,21.8
2022-10-05T07:21:04.540Z,21.9
2022-10-05T07:23:21.188Z,21.9
2022-10-05T07:25:37.455Z,22.2
2022-10-05T07:27:53.993Z,22.3
2022-10-05T07:30:08.996Z,22.3
2022-10-05T07:32:25.516Z,22.6
2022-10-05T07:34:41.854Z,22.1
2022-10-05T07:36:58.428Z,22.3
2022-10-05T07:39:14.515Z,22.5
2022-10-05T07:41:46.940Z,22.6
2022-10-05T07:44:18.377Z,22.6
2022-10-05T07:46:33.311Z,22.4
2022-10-05T07:48:49.460Z,22.9
2022-10-05T07:51:05.718Z,22.7
2022-10-05T07:53:21.730Z,22.8
2022-10-05T07:55:37.626Z,23
2022-10-05T07:57:53.559Z,23
2022-10-05T08:00:08.486Z,22.9
2022-10-05T08:02:23.466Z,23.3
2022-10-05T08:04:41.674Z,23.3
2022-10-05T08:06:55.844Z,23.2
2022-10-05T08:09:11.794Z,23.4
2022-10-05T08:11:26.768Z,23.5
2022-10-05T08:13:42.907Z,23.6
2022-10-05T08:15:58.807Z,23.6
2022-10-05T08:18:13.849Z,23.4
2022-10-05T08:20:28.655Z,23.6
2022-10-05T08:22:44.776Z,23.6
2022-10-05T08:24:59.750Z,23.3
2022-10-05T08:27:14.664Z,23.8
2022-10-05T08:29:29.721Z,23.8
2022-10-05T08:31:45.090Z,23.9
2022-10-05T08:33:59.823Z,23.8
2022-10-05T08:36:14.738Z,23.9
2022-10-05T08:38:29.781Z,23.8
2022-10-05T08:40:44.752Z,23.9
2022-10-05T08:42:59.964Z,23.9
2022-10-05T08:45:15.000Z,24
2022-10-05T08:47:29.870Z,23.9
2022-10-05T08:49:45.113Z,23.9
2022-10-05T08:52:00.447Z,24.1
2022-10-05T08:54:15.298Z,24.2
2022-10-05T08:56:30.363Z,24
2022-10-05T08:58:45.563Z,24.1
2022-10-05T09:01:00.816Z,24.1
2022-10-05T09:03:15.915Z,24.1
2022-10-05T09:05:30.870Z,24.1
2022-10-05T09:07:46.089Z,24.2
2022-10-05T09:10:02.006Z,24.3
2022-10-05T09:12:16.419Z,24.3
2022-10-05T09:14:31.554Z,24.4
2022-10-05T09:16:56.992Z,24.4
2022-10-05T09:19:12.244Z,24.3
2022-10-05T09:21:27.497Z,24.3
2022-10-05T09:23:42.836Z,24.4
2022-10-05T09:25:58.069Z,24.2
2022-10-05T09:28:13.505Z,24.3
2022-10-05T09:30:28.728Z,24.3
2022-10-05T09:32:43.957Z,24.4
2022-10-05T09:34:59.327Z,24.4
2022-10-05T09:37:14.640Z,24.3
2022-10-05T09:39:29.978Z,24.3
2022-10-05T09:41:45.672Z,24.4
2022-10-05T09:44:00.649Z,24.4
2022-10-05T09:46:16.082Z,24.2
2022-10-05T09:48:31.450Z,24.1
2022-10-05T09:50:46.777Z,24.2
2022-10-05T09:53:02.186Z,24.2
2022-10-05T09:55:17.587Z,24.4
2022-10-05T09:57:33.176Z,24.4
2022-10-05T09:59:48.259Z,24.6
2022-10-05T10:02:06.569Z,24.4
2022-10-05T10:04:21.973Z,24.1
2022-10-05T10:06:37.469Z,24.3
2022-10-05T10:08:52.827Z,24.4
2022-10-05T10:11:08.184Z,24.3
2022-10-05T10:13:23.636Z,24.3
2022-10-05T10:15:39.116Z,24.3
2022-10-05T10:17:54.475Z,24.2
2022-10-05T10:20:10.080Z,24.3
2022-10-05T10:22:25.403Z,24.1
2022-10-05T10:24:40.842Z,24.1
2022-10-05T10:26:56.363Z,24.2
2022-10-05T10:29:11.843Z,24.2
2022-10-05T10:31:27.291Z,24.1
2022-10-05T10:33:42.655Z,24.1
2022-10-05T10:35:59.543Z,24
2022-10-05T10:38:13.673Z,24.1
2022-10-05T10:40:29.119Z,24.1
2022-10-05T10:42:44.823Z,24.1
2022-10-05T10:45:00.190Z,24.2
2022-10-05T10:47:15.394Z,24.1
2022-10-05T10:49:31.482Z,24.1
2022-10-05T10:51:46.402Z,23.9
2022-10-05T10:54:01.827Z,24
2022-10-05T10:56:17.499Z,23.9
2022-10-05T10:58:32.812Z,24
2022-10-05T11:00:48.374Z,23.9
2022-10-05T11:03:03.938Z,23.9
2022-10-05T11:05:19.292Z,23.9
2022-10-05T11:07:34.877Z,23.8
2022-10-05T11:09:50.235Z,23.9
2022-10-05T11:12:05.770Z,23.9
2022-10-05T11:14:21.250Z,23.9
2022-10-05T11:16:36.801Z,23.8
2022-10-05T11:18:52.231Z,23.8
2022-10-05T11:21:08.377Z,23.8
2022-10-05T11:23:23.971Z,23.8
2022-10-05T11:25:38.689Z,23.7
2022-10-05T11:27:54.495Z,23.7
2022-10-05T11:30:09.674Z,23.9
2022-10-05T11:32:25.733Z,23.6
2022-10-05T11:34:40.673Z,23.7
2022-10-05T11:36:56.246Z,23.7
2022-10-05T11:39:11.781Z,23.7
2022-10-05T11:41:27.142Z,23.8
2022-10-05T11:43:42.837Z,23.6
2022-10-05T11:45:58.122Z,23.7
2022-10-05T11:48:13.683Z,23.7
2022-10-05T11:50:29.254Z,23.6
2022-10-05T11:52:44.597Z,23.7
2022-10-05T11:55:12.532Z,23.6
2022-10-05T11:57:28.435Z,23.4
2022-10-05T11:59:43.899Z,23.3
2022-10-05T12:01:59.330Z,23.4
2022-10-05T12:04:14.920Z,23.4
2022-10-05T12:06:30.253Z,23.4
2022-10-05T12:08:45.833Z,23.4
2022-10-05T12:11:01.350Z,23.4
2022-10-05T12:13:17.064Z,23.4
2022-10-05T12:15:32.621Z,23.6
2022-10-05T12:17:47.812Z,23.3
2022-10-05T12:20:03.478Z,23.3
2022-10-05T12:22:18.716Z,23.3
2022-10-05T12:24:34.269Z,23.3
2022-10-05T12:26:50.030Z,23.5
2022-10-05T12:29:05.226Z,23.3
2022-10-05T12:31:20.785Z,23.3
2022-10-05T12:33:36.171Z,23.3
2022-10-05T12:36:01.137Z,23.3
2022-10-05T12:38:25.969Z,23.3
2022-10-05T12:40:41.161Z,23.3
2022-10-05T12:42:56.651Z,23.1
2022-10-05T12:45:12.221Z,23.1
2022-10-05T12:47:27.713Z,23.1
2022-10-05T12:49:43.135Z,23.3
2022-10-05T12:51:58.764Z,23.1
2022-10-05T12:54:14.235Z,23.1
2022-10-05T12:56:29.732Z,23.1
2022-10-05T12:58:45.280Z,23.1
2022-10-05T13:01:00.865Z,23.1
2022-10-05T13:03:16.330Z,23.1
2022-10-05T13:05:31.802Z,23.1
2022-10-05T13:07:48.523Z,23.1
2022-10-05T13:10:02.840Z,22.9
2022-10-05T13:12:18.329Z,23.1
2022-10-05T13:14:33.956Z,23.1
2022-10-05T13:16:54.041Z,22.9
2022-10-05T13:19:04.801Z,22.9
2022-10-05T13:21:20.449Z,23.1
2022-10-05T13:23:36.217Z,23
2022-10-05T13:25:51.367Z,23.1
2022-10-05T13:28:07.080Z,22.9
2022-10-05T13:30:22.413Z,23
2022-10-05T13:32:37.961Z,22.9
2022-10-05T13:34:53.501Z,22.8
2022-10-05T13:37:09.083Z,22.8
2022-10-05T13:39:24.598Z,22.9
2022-10-05T13:41:40.102Z,22.9
2022-10-05T13:43:55.769Z,22.8
2022-10-05T13:46:11.619Z,22.8
2022-10-05T13:48:27.209Z,22.8
2022-10-05T13:50:42.251Z,22.8
2022-10-05T13:52:57.776Z,22.9
2022-10-05T13:55:13.223Z,22.8
2022-10-05T13:57:28.756Z,22.8
2022-10-05T13:59:44.505Z,22.6
2022-10-05T14:02:00.090Z,22.8
2022-10-05T14:04:15.417Z,22.5
2022-10-05T14:06:32.100Z,22.8
2022-10-05T14:08:46.761Z,22.7
2022-10-05T14:11:02.050Z,22.6
2022-10-05T14:13:17.628Z,22.7
2022-10-05T14:15:33.211Z,22.6
2022-10-05T14:17:48.785Z,22.6
2022-10-05T14:20:04.283Z,22.5
2022-10-05T14:22:19.878Z,22.5
2022-10-05T14:24:45.395Z,22.4
2022-10-05T14:27:01.121Z,22.5
2022-10-05T14:29:16.638Z,22.6
2022-10-05T14:31:32.443Z,22.4
2022-10-05T14:33:47.840Z,22.4
2022-10-05T14:36:03.302Z,22.4
2022-10-05T14:38:18.918Z,22.4
2022-10-05T14:40:34.453Z,22.3
2022-10-05T14:42:50.056Z,22.4
2022-10-05T14:45:05.663Z,22.4
2022-10-05T14:47:21.186Z,22.4
2022-10-05T14:49:36.817Z,22.4
2022-10-05T14:51:53.238Z,22.3
2022-10-05T14:54:10.031Z,21.7
2022-10-05T14:56:26.238Z,22
2022-10-05T14:58:42.709Z,22
2022-10-05T15:00:57.763Z,21.7
2022-10-05T15:03:12.630Z,22.3
2022-10-05T15:05:29.219Z,22.3
2022-10-05T15:07:44.235Z,21.9
2022-10-05T15:09:59.418Z,22.3
2022-10-05T15:12:16.207Z,22.3
2022-10-05T15:14:32.405Z,21.8
2022-10-05T15:16:48.891Z,22
2022-10-05T15:19:05.212Z,22
2022-10-05T15:21:21.781Z,22.1
2022-10-05T15:23:37.868Z,22.2
2022-10-05T15:25:53.951Z,22.1
2022-10-05T15:28:09.090Z,21.8
2022-10-05T15:30:25.304Z,22.1
2022-10-05T15:32:41.756Z,21.8
2022-10-05T15:34:58.085Z,21.9
2022-10-05T15:37:14.486Z,22.1
2022-10-05T15:39:29.852Z,22.3
2022-10-05T15:41:45.773Z,22.1
2022-10-05T15:44:00.908Z,21.6
2022-10-05T15:46:17.365Z,22.1
2022-10-05T15:48:33.755Z,21.6
2022-10-05T15:50:50.177Z,21.9
2022-10-05T15:53:06.596Z,21.9
2022-10-05T15:55:23.116Z,22
2022-10-05T15:57:39.283Z,22.3
2022-10-05T15:59:55.666Z,22
2022-10-05T16:02:12.016Z,21.9
2022-10-05T16:04:28.342Z,21.9
2022-10-05T16:06:44.879Z,21.9
2022-10-05T16:09:01.231Z,21.9
2022-10-05T16:11:19.169Z,21.8
2022-10-05T16:13:34.036Z,21.8
2022-10-05T16:15:50.187Z,21.8
2022-10-05T16:18:06.596Z,21.9
2022-10-05T16:20:22.946Z,21.8
2022-10-05T16:22:43.173Z,21.9
2022-10-05T16:24:56.040Z,21.6
2022-10-05T16:27:10.933Z,21.5
2022-10-05T16:29:25.972Z,21.8
2022-10-05T16:31:41.207Z,21.8
2022-10-05T16:33:57.961Z,21.7
2022-10-05T16:36:14.734Z,21.4
2022-10-05T16:38:31.453Z,21.4
2022-10-05T16:40:48.094Z,21.4
2022-10-05T16:43:04.669Z,21.4
2022-10-05T16:45:19.953Z,21.4
2022-10-05T16:47:36.463Z,21.7
2022-10-05T16:49:51.634Z,21.4
2022-10-05T16:52:08.480Z,21.6
2022-10-05T16:54:25.022Z,21.5
2022-10-05T16:56:41.810Z,21.4
2022-10-05T16:58:58.575Z,21.2
2022-10-05T17:01:13.631Z,21.3
2022-10-05T17:03:30.177Z,21.4
2022-10-05T17:05:47.006Z,21.3
2022-10-05T17:08:02.193Z,21.4
2022-10-05T17:10:17.671Z,21.4
2022-10-05T17:12:34.133Z,21.5
2022-10-05T17:14:51.131Z,21.2
2022-10-05T17:19:24.610Z,20.9
2022-10-05T17:23:56.350Z,21.5
2022-10-05T17:26:11.573Z,21.1
2022-10-05T17:28:28.599Z,21.4
2022-10-05T17:30:45.267Z,21.1
2022-10-05T17:33:01.853Z,21
2022-10-05T17:35:19.108Z,21
2022-10-05T17:37:33.728Z,21
2022-10-05T17:39:50.575Z,21.3
2022-10-05T17:42:07.136Z,20.9
2022-10-05T17:44:22.433Z,20.9
2022-10-05T17:46:39.116Z,21.2
2022-10-05T17:48:55.790Z,21.1
2022-10-05T17:51:12.492Z,21.1
2022-10-05T17:53:29.214Z,20.9
2022-10-05T17:55:46.158Z,20.9
2022-10-05T17:58:02.711Z,21
2022-10-05T18:00:19.356Z,21
2022-10-05T18:02:37.080Z,20.9
2022-10-05T18:04:52.748Z,21
2022-10-05T18:07:09.517Z,20.9
2022-10-05T18:09:26.253Z,20.8
2022-10-05T18:11:42.854Z,21
2022-10-05T18:13:59.623Z,20.9
2022-10-05T18:16:16.562Z,20.9
2022-10-05T18:18:33.044Z,20.9
2022-10-05T18:20:50.287Z,20.9
2022-10-05T18:23:06.457Z,20.9
2022-10-05T18:25:23.140Z,20.9
2022-10-05T18:27:39.891Z,20.9
2022-10-05T18:29:56.638Z,21
2022-10-05T18:32:13.384Z,20.8
2022-10-05T18:34:30.053Z,20.9
2022-10-05T18:36:46.848Z,21
2022-10-05T18:39:03.525Z,20.9
2022-10-05T18:41:20.463Z,20.9
2022-10-05T18:43:37.028Z,20.7
2022-10-05T18:45:53.652Z,20.8
2022-10-05T18:48:10.578Z,20.8
2022-10-05T18:50:27.235Z,20.8
2022-10-05T18:52:43.896Z,20.9
2022-10-05T18:55:00.698Z,20.8
2022-10-05T18:57:17.462Z,20.8
2022-10-05T18:59:34.231Z,20.8
2022-10-05T19:01:50.640Z,20.8
2022-10-05T19:04:07.779Z,20.8
2022-10-05T19:06:36.512Z,20.8
2022-10-05T19:08:52.906Z,20.6
2022-10-05T19:11:09.681Z,20.8
2022-10-05T19:13:26.787Z,20.6
2022-10-05T19:15:43.252Z,20.6
2022-10-05T19:17:59.961Z,20.8
2022-10-05T19:20:16.843Z,20.6
2022-10-05T19:22:33.523Z,20.8
2022-10-05T19:24:50.279Z,20.8
2022-10-05T19:27:07.047Z,20.8
2022-10-05T19:29:23.813Z,20.7
2022-10-05T19:31:40.654Z,20.8
2022-10-05T19:33:57.907Z,20.6
2022-10-05T19:36:14.063Z,20.7
2022-10-05T19:38:30.842Z,20.8
2022-10-05T19:40:47.702Z,20.6
2022-10-05T19:43:04.404Z,20.6
2022-10-05T19:45:21.178Z,20.6
2022-10-05T19:47:41.064Z,20.6
2022-10-05T19:49:54.786Z,20.6
2022-10-05T19:52:10.204Z,20.7
2022-10-05T19:54:26.729Z,21
2022-10-05T19:56:43.556Z,20.4
2022-10-05T19:58:58.792Z,20.4
2022-10-05T20:01:15.634Z,20.7
2022-10-05T20:03:33.110Z,20.5
2022-10-05T20:05:49.349Z,20.4
2022-10-05T20:08:06.141Z,20.6
2022-10-05T20:10:22.952Z,20.7
2022-10-05T20:12:38.158Z,20.6
2022-10-05T20:14:58.533Z,20.8
2022-10-05T20:17:11.691Z,20.3
2022-10-05T20:19:28.511Z,20.5
2022-10-05T20:21:45.284Z,20.3
2022-10-05T20:24:02.153Z,20.3
2022-10-05T20:26:18.930Z,20.4
2022-10-05T20:28:35.844Z,20.4
2022-10-05T20:30:52.659Z,20.3
2022-10-05T20:33:09.458Z,20.4
2022-10-05T20:35:24.651Z,20.4
2022-10-05T20:37:40.209Z,20.8
2022-10-05T20:39:56.865Z,20.7
2022-10-05T20:42:13.602Z,20.5
2022-10-05T20:44:30.515Z,20.3
2022-10-05T20:46:47.393Z,20.3
2022-10-05T20:49:04.172Z,20.3
2022-10-05T20:51:20.967Z,20.1
2022-10-05T20:53:37.735Z,20
2022-10-05T20:55:54.577Z,20.3
2022-10-05T20:58:11.392Z,20.3
2022-10-05T21:00:33.263Z,20.4
2022-10-05T21:02:44.974Z,20.1
2022-10-05T21:05:01.855Z,20.3
2022-10-05T21:07:18.590Z,20.4
2022-10-05T21:09:35.432Z,20.2
2022-10-05T21:11:52.246Z,20.4
2022-10-05T21:14:09.072Z,20.3
2022-10-05T21:16:25.921Z,20.3
2022-10-05T21:18:42.682Z,20.3
2022-10-05T21:21:02.161Z,20.3
2022-10-05T21:23:16.557Z,20.3
2022-10-05T21:25:33.711Z,20.4
2022-10-05T21:27:49.933Z,20.3
2022-10-05T21:30:06.671Z,20.3
2022-10-05T21:32:23.434Z,20.1
2022-10-05T21:34:40.273Z,20.1
2022-10-05T21:36:57.016Z,20.1
2022-10-05T21:39:13.951Z,20
2022-10-05T21:41:30.717Z,20.1
2022-10-05T21:43:47.486Z,20.1
2022-10-05T21:46:04.371Z,20.2
2022-10-05T21:48:21.268Z,20.1
2022-10-05T21:50:38.003Z,20.1
2022-10-05T21:52:53.249Z,20.2
2022-10-05T21:55:08.675Z,20.4
2022-10-05T21:57:25.552Z,20.4
2022-10-05T21:59:42.476Z,20
2022-10-05T22:01:59.320Z,19.9
2022-10-05T22:04:16.250Z,20.1
2022-10-05T22:06:33.090Z,20.1
2022-10-05T22:08:50.010Z,19.9
2022-10-05T22:11:06.738Z,20
2022-10-05T22:13:23.421Z,20.1
2022-10-05T22:15:40.397Z,20.1
2022-10-05T22:17:57.131Z,20.1
2022-10-05T22:20:14.010Z,20.3
2022-10-05T22:22:30.852Z,20
2022-10-05T22:24:47.651Z,19.9
2022-10-05T22:27:04.496Z,20.1
2022-10-05T22:29:21.995Z,20.1
2022-10-05T22:31:38.231Z,19.8
2022-10-05T22:33:55.154Z,20
2022-10-05T22:36:11.908Z,19.8
2022-10-05T22:38:29.000Z,20
2022-10-05T22:40:45.684Z,19.9
2022-10-05T22:43:02.306Z,19.9
2022-10-05T22:45:19.226Z,20.1
2022-10-05T22:47:36.072Z,20.1
2022-10-05T22:49:52.742Z,19.9
2022-10-05T22:52:08.095Z,19.9
2022-10-05T22:54:28.826Z,20.2
2022-10-05T22:56:40.379Z,19.9
2022-10-05T22:58:57.143Z,20.3
2022-10-05T23:01:29.576Z,19.9
2022-10-05T23:03:46.356Z,19.6
2022-10-05T23:06:03.194Z,19.8
2022-10-05T23:08:20.048Z,19.9
2022-10-05T23:10:36.921Z,19.8
2022-10-05T23:12:57.165Z,19.9
2022-10-05T23:15:10.711Z,19.9
2022-10-05T23:17:25.918Z,19.8
2022-10-05T23:19:41.776Z,20.2
2022-10-05T23:21:58.336Z,20.2
2022-10-05T23:24:15.289Z,19.6
2022-10-05T23:26:32.182Z,19.8
2022-10-05T23:28:49.156Z,19.7
2022-10-05T23:31:06.090Z,20
2022-10-05T23:33:22.861Z,19.9
2022-10-05T23:35:39.735Z,19.8
2022-10-05T23:37:56.533Z,19.6
2022-10-05T23:40:13.522Z,19.8
2022-10-05T23:42:30.343Z,19.7
2022-10-05T23:44:47.276Z,19.8
2022-10-05T23:47:04.110Z,19.6
2022-10-05T23:49:20.991Z,19.8
2022-10-05T23:51:37.916Z,19.8
2022-10-05T23:53:54.712Z,19.8
2022-10-05T23:56:11.963Z,19.8
2022-10-05T23:58:28.811Z,19.8
